Time,TemperatureF,DewpointF,PressureIn,WindDirection,WindDirectionDegrees,WindSpeedMPH,WindSpeedGustMPH,Humidity,HourlyPrecipIn,Conditions,Clouds,dailyrainin,SoftwareType,DateUTC
2013-03-06 00:04:00,33.0,12.3,30.31,North,0,0.0,0.0,42,0.00,,,0.00,WUHU216HW,2013-03-06 06:04:00,
2013-03-06 00:09:00,33.2,13.0,30.31,North,0,0.0,0.0,43,0.00,,,0.00,WUHU216HW,2013-03-06 06:09:00,
2013-03-06 00:14:00,33.4,13.2,30.31,North,0,0.0,0.0,43,0.00,,,0.00,WUHU216HW,2013-03-06 06:14:00,
2013-03-06 00:19:00,33.6,13.3,30.31,North,0,0.0,0.0,44,0.00,,,0.00,WUHU216HW,2013-03-06 06:19:00,
2013-03-06 00:24:00,33.4,13.2,30.31,North,0,0.0,0.0,43,0.00,,,0.00,WUHU216HW,2013-03-06 06:24:00,
2013-03-06 00:29:00,33.4,13.2,30.31,North,0,0.0,0.0,43,0.00,,,0.00,WUHU216HW,2013-03-06 06:29:00,
2013-03-06 00:34:00,32.9,12.7,30.31,North,0,0.0,0.0,43,0.00,,,0.00,WUHU216HW,2013-03-06 06:34:00,
2013-03-06 00:39:00,32.5,12.4,30.31,North,0,0.0,0.0,43,0.00,,,0.00,WUHU216HW,2013-03-06 06:39:00,
2013-03-06 00:44:00,32.5,12.4,30.31,North,0,0.0,0.0,44,0.00,,,0.00,WUHU216HW,2013-03-06 06:44:00,
2013-03-06 00:49:00,32.5,12.4,30.31,North,0,0.0,0.0,44,0.00,,,0.00,WUHU216HW,2013-03-06 06:49:00,
2013-03-06 00:54:00,32.5,12.4,30.31,North,0,0.0,0.0,45,0.00,,,0.00,WUHU216HW,2013-03-06 06:54:00,
2013-03-06 00:59:00,32.0,12.9,30.31,North,0,0.0,0.0,45,0.00,,,0.00,WUHU216HW,2013-03-06 06:59:00,
2013-03-06 01:04:00,31.6,12.5,30.31,North,0,0.0,0.0,46,0.00,,,0.00,WUHU216HW,2013-03-06 07:04:00,
2013-03-06 01:09:00,31.2,12.7,30.31,North,0,0.0,0.0,46,0.00,,,0.00,WUHU216HW,2013-03-06 07:09:00,
2013-03-06 01:14:00,30.9,12.4,30.31,North,0,0.0,0.0,46,0.00,,,0.00,WUHU216HW,2013-03-06 07:14:00,
2013-03-06 01:19:00,30.7,12.2,30.31,North,0,0.0,0.0,46,0.00,,,0.00,WUHU216HW,2013-03-06 07:19:00,
2013-03-06 01:24:00,30.3,12.4,30.31,North,0,0.0,0.0,47,0.00,,,0.00,WUHU216HW,2013-03-06 07:24:00,
2013-03-06 01:29:00,30.2,13.3,30.32,North,0,0.0,0.0,49,0.00,,,0.00,WUHU216HW,2013-03-06 07:29:00,
2013-03-06 01:34:00,30.0,13.1,30.32,North,0,0.0,0.0,49,0.00,,,0.00,WUHU216HW,2013-03-06 07:34:00,
2013-03-06 01:39:00,29.8,13.4,30.32,North,0,0.0,0.0,50,0.00,,,0.00,WUHU216HW,2013-03-06 07:39:00,
2013-03-06 01:44:00,29.8,13.4,30.32,North,0,0.0,0.0,49,0.00,,,0.00,WUHU216HW,2013-03-06 07:44:00,
2013-03-06 01:49:00,29.4,13.1,30.33,North,0,0.0,0.0,51,0.00,,,0.00,WUHU216HW,2013-03-06 07:49:00,
2013-03-06 01:54:00,29.3,13.0,30.32,North,0,0.0,0.0,50,0.00,,,0.00,WUHU216HW,2013-03-06 07:54:00,
2013-03-06 01:59:00,29.1,12.8,30.32,North,0,0.0,0.0,50,0.00,,,0.00,WUHU216HW,2013-03-06 07:59:00,
2013-03-06 02:04:00,28.9,13.1,30.32,North,0,0.0,0.0,51,0.00,,,0.00,WUHU216HW,2013-03-06 08:04:00,
2013-03-06 02:09:00,29.1,13.2,30.32,North,0,0.0,0.0,51,0.00,,,0.00,WUHU216HW,2013-03-06 08:09:00,
2013-03-06 02:14:00,29.1,13.2,30.32,North,0,0.0,0.0,51,0.00,,,0.00,WUHU216HW,2013-03-06 08:14:00,
2013-03-06 02:19:00,29.1,13.2,30.32,North,0,0.0,0.0,52,0.00,,,0.00,WUHU216HW,2013-03-06 08:19:00,
2013-03-06 02:24:00,29.1,13.2,30.32,North,0,0.0,0.0,52,0.00,,,0.00,WUHU216HW,2013-03-06 08:24:00,
2013-03-06 02:29:00,29.4,13.5,30.32,North,0,0.0,0.0,51,0.00,,,0.00,WUHU216HW,2013-03-06 08:29:00,
2013-03-06 02:34:00,29.4,13.5,30.32,North,0,0.0,0.0,52,0.00,,,0.00,WUHU216HW,2013-03-06 08:34:00,
2013-03-06 02:39:00,29.8,14.3,30.32,North,0,0.0,0.0,52,0.00,,,0.00,WUHU216HW,2013-03-06 08:39:00,
2013-03-06 02:44:00,29.8,14.3,30.32,North,0,0.0,0.0,51,0.00,,,0.00,WUHU216HW,2013-03-06 08:44:00,
2013-03-06 02:49:00,29.8,14.3,30.32,North,0,0.0,0.0,51,0.00,,,0.00,WUHU216HW,2013-03-06 08:49:00,
2013-03-06 02:54:00,29.4,13.5,30.31,North,0,0.0,0.0,52,0.00,,,0.00,WUHU216HW,2013-03-06 08:54:00,
2013-03-06 02:59:00,29.4,13.5,30.31,North,0,0.0,0.0,52,0.00,,,0.00,WUHU216HW,2013-03-06 08:59:00,
2013-03-06 03:04:00,29.8,14.3,30.31,North,0,0.0,0.0,52,0.00,,,0.00,WUHU216HW,2013-03-06 09:04:00,
2013-03-06 03:09:00,30.3,14.3,30.31,North,0,0.0,0.0,51,0.00,,,0.00,WUHU216HW,2013-03-06 09:09:00,
2013-03-06 03:14:00,30.7,14.7,30.31,North,0,0.0,0.0,51,0.00,,,0.00,WUHU216HW,2013-03-06 09:14:00,
2013-03-06 03:19:00,30.3,13.9,30.31,North,0,0.0,0.0,50,0.00,,,0.00,WUHU216HW,2013-03-06 09:19:00,
2013-03-06 03:24:00,29.6,13.7,30.31,North,0,0.0,0.0,51,0.00,,,0.00,WUHU216HW,2013-03-06 09:24:00,
2013-03-06 03:29:00,29.1,13.2,30.31,North,0,0.0,0.0,51,0.00,,,0.00,WUHU216HW,2013-03-06 09:29:00,
2013-03-06 03:34:00,28.7,13.3,30.31,North,0,0.0,0.0,52,0.00,,,0.00,WUHU216HW,2013-03-06 09:34:00,
2013-03-06 03:39:00,28.0,13.0,30.31,North,0,0.0,0.0,53,0.00,,,0.00,WUHU216HW,2013-03-06 09:39:00,
2013-03-06 03:44:00,27.8,12.9,30.31,North,0,0.0,0.0,53,0.00,,,0.00,WUHU216HW,2013-03-06 09:44:00,
2013-03-06 03:49:00,27.5,12.9,30.31,North,0,0.0,0.0,54,0.00,,,0.00,WUHU216HW,2013-03-06 09:49:00,
2013-03-06 03:54:00,27.3,12.7,30.31,North,0,0.0,0.0,54,0.00,,,0.00,WUHU216HW,2013-03-06 09:54:00,
2013-03-06 03:59:00,27.1,13.0,30.31,North,0,0.0,0.0,56,0.00,,,0.00,WUHU216HW,2013-03-06 09:59:00,
2013-03-06 04:04:00,26.9,12.8,30.31,North,0,0.0,0.0,55,0.00,,,0.00,WUHU216HW,2013-03-06 10:04:00,
2013-03-06 04:09:00,26.7,12.6,30.32,North,0,0.0,0.0,55,0.00,,,0.00,WUHU216HW,2013-03-06 10:09:00,
2013-03-06 04:14:00,26.7,13.0,30.31,North,0,0.0,0.0,56,0.00,,,0.00,WUHU216HW,2013-03-06 10:14:00,
2013-03-06 04:19:00,26.7,13.0,30.31,North,0,0.0,0.0,57,0.00,,,0.00,WUHU216HW,2013-03-06 10:19:00,
2013-03-06 04:24:00,26.7,13.0,30.31,North,0,0.0,0.0,57,0.00,,,0.00,WUHU216HW,2013-03-06 10:24:00,
2013-03-06 04:29:00,26.7,13.0,30.31,North,0,0.0,0.0,58,0.00,,,0.00,WUHU216HW,2013-03-06 10:29:00,
2013-03-06 04:34:00,26.7,13.0,30.31,North,0,0.0,0.0,57,0.00,,,0.00,WUHU216HW,2013-03-06 10:34:00,
2013-03-06 04:39:00,26.7,13.0,30.31,North,0,0.0,0.0,57,0.00,,,0.00,WUHU216HW,2013-03-06 10:39:00,
2013-03-06 04:44:00,26.6,13.3,30.31,North,0,0.0,0.0,57,0.00,,,0.00,WUHU216HW,2013-03-06 10:44:00,
2013-03-06 04:49:00,27.3,14.4,30.31,North,0,0.0,0.0,58,0.00,,,0.00,WUHU216HW,2013-03-06 10:49:00,
2013-03-06 04:54:00,28.7,15.4,30.31,North,0,0.0,0.0,57,0.00,,,0.00,WUHU216HW,2013-03-06 10:54:00,
2013-03-06 05:00:00,29.4,15.6,30.31,North,0,0.0,0.0,56,0.00,,,0.00,WUHU216HW,2013-03-06 11:00:00,
2013-03-06 05:05:00,30.5,15.8,30.32,North,0,0.0,0.0,54,0.00,,,0.00,WUHU216HW,2013-03-06 11:05:00,
2013-03-06 05:10:00,30.2,15.0,30.31,North,0,0.0,0.0,53,0.00,,,0.00,WUHU216HW,2013-03-06 11:10:00,
2013-03-06 05:15:00,30.0,15.3,30.31,North,0,0.0,0.0,53,0.00,,,0.00,WUHU216HW,2013-03-06 11:15:00,
2013-03-06 05:20:00,30.0,15.3,30.32,North,0,0.0,0.0,53,0.00,,,0.00,WUHU216HW,2013-03-06 11:20:00,
2013-03-06 05:25:00,30.3,15.2,30.32,North,0,0.0,0.0,53,0.00,,,0.00,WUHU216HW,2013-03-06 11:25:00,
2013-03-06 05:30:00,29.8,14.7,30.32,North,0,0.0,0.0,53,0.00,,,0.00,WUHU216HW,2013-03-06 11:30:00,
2013-03-06 05:35:00,29.8,14.7,30.32,North,0,0.0,0.0,54,0.00,,,0.00,WUHU216HW,2013-03-06 11:35:00,
2013-03-06 05:40:00,29.8,14.7,30.32,North,0,0.0,0.0,54,0.00,,,0.00,WUHU216HW,2013-03-06 11:40:00,
2013-03-06 05:45:00,29.3,14.6,30.33,North,0,0.0,0.0,54,0.00,,,0.00,WUHU216HW,2013-03-06 11:45:00,
2013-03-06 05:50:00,28.7,14.1,30.34,North,0,0.0,0.0,54,0.00,,,0.00,WUHU216HW,2013-03-06 11:50:00,
2013-03-06 05:55:00,28.4,13.8,30.34,North,0,0.0,0.0,54,0.00,,,0.00,WUHU216HW,2013-03-06 11:55:00,
2013-03-06 06:00:00,27.6,13.5,30.34,North,0,0.0,0.0,55,0.00,,,0.00,WUHU216HW,2013-03-06 12:00:00,
2013-03-06 06:05:00,27.3,13.1,30.34,North,0,0.0,0.0,55,0.00,,,0.00,WUHU216HW,2013-03-06 12:05:00,
2013-03-06 06:10:00,26.9,13.6,30.34,North,0,0.0,0.0,57,0.00,,,0.00,WUHU216HW,2013-03-06 12:10:00,
2013-03-06 06:15:00,26.4,13.1,30.34,North,0,0.0,0.0,57,0.00,,,0.00,WUHU216HW,2013-03-06 12:15:00,
2013-03-06 06:20:00,26.4,13.1,30.34,North,0,0.0,0.0,57,0.00,,,0.00,WUHU216HW,2013-03-06 12:20:00,
2013-03-06 06:25:00,26.2,13.3,30.35,North,0,0.0,0.0,59,0.00,,,0.00,WUHU216HW,2013-03-06 12:25:00,
2013-03-06 06:30:00,26.2,13.3,30.35,North,0,0.0,0.0,59,0.00,,,0.00,WUHU216HW,2013-03-06 12:30:00,
2013-03-06 06:35:00,26.2,13.3,30.35,North,0,0.0,0.0,59,0.00,,,0.00,WUHU216HW,2013-03-06 12:35:00,
2013-03-06 06:40:00,26.2,13.3,30.35,North,0,0.0,0.0,60,0.00,,,0.00,WUHU216HW,2013-03-06 12:40:00,
2013-03-06 06:45:00,26.2,13.3,30.36,North,0,0.0,0.0,59,0.00,,,0.00,WUHU216HW,2013-03-06 12:45:00,
2013-03-06 06:50:00,26.2,13.3,30.35,North,0,0.0,0.0,60,0.00,,,0.00,WUHU216HW,2013-03-06 12:50:00,
2013-03-06 06:55:00,26.2,13.3,30.35,North,0,0.0,0.0,60,0.00,,,0.00,WUHU216HW,2013-03-06 12:55:00,
2013-03-06 07:00:00,26.2,13.3,30.35,North,0,0.0,0.0,60,0.00,,,0.00,WUHU216HW,2013-03-06 13:00:00,
2013-03-06 07:05:00,26.2,13.3,30.35,North,0,0.0,0.0,60,0.00,,,0.00,WUHU216HW,2013-03-06 13:05:00,
2013-03-06 07:10:00,26.7,15.0,30.35,North,0,0.0,0.0,61,0.00,,,0.00,WUHU216HW,2013-03-06 13:10:00,
2013-03-06 07:15:00,27.1,15.4,30.35,North,0,0.0,0.0,61,0.00,,,0.00,WUHU216HW,2013-03-06 13:15:00,
2013-03-06 07:20:00,27.3,15.6,30.36,North,0,0.0,0.0,60,0.00,,,0.00,WUHU216HW,2013-03-06 13:20:00,
2013-03-06 07:25:00,27.8,16.5,30.36,North,0,0.0,0.0,62,0.00,,,0.00,WUHU216HW,2013-03-06 13:25:00,
2013-03-06 07:30:00,28.0,16.3,30.36,North,0,0.0,0.0,61,0.00,,,0.00,WUHU216HW,2013-03-06 13:30:00,
2013-03-06 07:35:00,28.5,16.8,30.37,North,0,0.0,0.0,61,0.00,,,0.00,WUHU216HW,2013-03-06 13:35:00,
2013-03-06 07:40:00,28.9,17.1,30.37,North,0,0.0,0.0,61,0.00,,,0.00,WUHU216HW,2013-03-06 13:40:00,
2013-03-06 07:45:00,30.0,18.1,30.37,North,0,0.0,0.0,61,0.00,,,0.00,WUHU216HW,2013-03-06 13:45:00,
2013-03-06 07:50:00,30.9,19.0,30.38,North,0,0.0,0.0,61,0.00,,,0.00,WUHU216HW,2013-03-06 13:50:00,
2013-03-06 07:55:00,32.0,18.8,30.38,North,0,0.0,0.0,58,0.00,,,0.00,WUHU216HW,2013-03-06 13:55:00,
2013-03-06 08:00:00,33.0,19.4,30.38,North,0,0.0,0.0,57,0.00,,,0.00,WUHU216HW,2013-03-06 14:00:00,
2013-03-06 08:05:00,34.3,20.1,30.38,North,0,0.0,0.0,56,0.00,,,0.00,WUHU216HW,2013-03-06 14:05:00,
2013-03-06 08:10:00,35.4,19.1,30.38,North,0,0.0,0.0,51,0.00,,,0.00,WUHU216HW,2013-03-06 14:10:00,
2013-03-06 08:15:00,37.2,19.7,30.38,North,0,0.0,0.0,49,0.00,,,0.00,WUHU216HW,2013-03-06 14:15:00,
2013-03-06 08:20:00,38.8,19.6,30.38,North,0,0.0,0.0,46,0.00,,,0.00,WUHU216HW,2013-03-06 14:20:00,
2013-03-06 08:25:00,39.7,19.4,30.38,North,0,0.0,0.0,44,0.00,,,0.00,WUHU216HW,2013-03-06 14:25:00,
2013-03-06 08:30:00,40.2,19.4,30.37,North,0,0.0,0.0,43,0.00,,,0.00,WUHU216HW,2013-03-06 14:30:00,
2013-03-06 08:35:00,40.2,19.4,30.37,North,0,0.0,0.0,43,0.00,,,0.00,WUHU216HW,2013-03-06 14:35:00,
2013-03-06 08:40:00,40.6,19.7,30.37,North,0,0.0,0.0,43,0.00,,,0.00,WUHU216HW,2013-03-06 14:40:00,
2013-03-06 08:45:00,40.6,19.7,30.38,North,0,0.0,0.0,43,0.00,,,0.00,WUHU216HW,2013-03-06 14:45:00,
2013-03-06 08:50:00,40.8,19.9,30.38,North,0,0.0,0.0,43,0.00,,,0.00,WUHU216HW,2013-03-06 14:50:00,
2013-03-06 08:55:00,40.8,19.9,30.38,North,0,0.0,0.0,43,0.00,,,0.00,WUHU216HW,2013-03-06 14:55:00,
2013-03-06 09:00:00,41.1,20.7,30.38,North,0,0.0,0.0,44,0.00,,,0.00,WUHU216HW,2013-03-06 15:00:00,
2013-03-06 09:05:00,41.7,20.7,30.38,North,0,0.0,0.0,43,0.00,,,0.00,WUHU216HW,2013-03-06 15:05:00,
2013-03-06 09:10:00,42.2,21.2,30.39,North,0,0.0,0.0,43,0.00,,,0.00,WUHU216HW,2013-03-06 15:10:00,
2013-03-06 09:15:00,42.8,21.2,30.39,North,0,0.0,0.0,42,0.00,,,0.00,WUHU216HW,2013-03-06 15:15:00,
2013-03-06 09:20:00,43.5,21.8,30.39,North,0,0.0,0.0,42,0.00,,,0.00,WUHU216HW,2013-03-06 15:20:00,
2013-03-06 09:25:00,44.4,22.1,30.38,North,0,0.0,0.0,41,0.00,,,0.00,WUHU216HW,2013-03-06 15:25:00,
2013-03-06 09:30:00,45.3,22.3,30.38,North,0,0.0,0.0,40,0.00,,,0.00,WUHU216HW,2013-03-06 15:30:00,
2013-03-06 09:35:00,45.8,22.8,30.38,North,0,0.0,0.0,40,0.00,,,0.00,WUHU216HW,2013-03-06 15:35:00,
2013-03-06 09:40:00,46.2,22.5,30.38,North,0,0.0,0.0,38,0.00,,,0.00,WUHU216HW,2013-03-06 15:40:00,
2013-03-06 09:45:00,46.9,21.8,30.38,North,0,0.0,0.0,37,0.00,,,0.00,WUHU216HW,2013-03-06 15:45:00,
2013-03-06 09:50:00,47.3,22.1,30.37,North,0,0.0,0.0,37,0.00,,,0.00,WUHU216HW,2013-03-06 15:50:00,
2013-03-06 09:55:00,47.8,21.9,30.38,North,0,0.0,0.0,36,0.00,,,0.00,WUHU216HW,2013-03-06 15:55:00,
2013-03-06 10:00:00,47.8,21.3,30.38,North,0,0.0,0.0,35,0.00,,,0.00,WUHU216HW,2013-03-06 16:00:00,
2013-03-06 10:05:00,48.0,21.4,30.38,North,0,0.0,0.0,35,0.00,,,0.00,WUHU216HW,2013-03-06 16:05:00,
2013-03-06 10:10:00,48.3,20.4,30.38,North,0,0.0,0.0,33,0.00,,,0.00,WUHU216HW,2013-03-06 16:10:00,
2013-03-06 10:15:00,48.9,20.2,30.38,North,0,0.0,0.0,32,0.00,,,0.00,WUHU216HW,2013-03-06 16:15:00,
2013-03-06 10:20:00,48.9,20.2,30.39,North,0,0.0,0.0,33,0.00,,,0.00,WUHU216HW,2013-03-06 16:20:00,
2013-03-06 10:25:00,50.0,21.8,30.38,North,0,0.0,0.0,33,0.00,,,0.00,WUHU216HW,2013-03-06 16:25:00,
2013-03-06 10:30:00,50.5,20.9,30.38,North,0,0.0,0.0,30,0.00,,,0.00,WUHU216HW,2013-03-06 16:30:00,
2013-03-06 10:35:00,50.9,20.5,30.39,North,0,0.0,0.0,31,0.00,,,0.00,WUHU216HW,2013-03-06 16:35:00,
2013-03-06 10:40:00,51.4,21.0,30.38,North,0,0.0,0.0,30,0.00,,,0.00,WUHU216HW,2013-03-06 16:40:00,
2013-03-06 10:45:00,52.8,20.4,30.38,North,0,0.0,0.0,28,0.00,,,0.00,WUHU216HW,2013-03-06 16:45:00,
2013-03-06 10:50:00,52.7,20.3,30.38,North,0,0.0,0.0,29,0.00,,,0.00,WUHU216HW,2013-03-06 16:50:00,
2013-03-06 10:55:00,53.4,22.8,30.37,North,0,0.0,0.0,30,0.00,,,0.00,WUHU216HW,2013-03-06 16:55:00,
2013-03-06 11:00:00,53.2,20.7,30.37,North,0,0.0,0.0,28,0.00,,,0.00,WUHU216HW,2013-03-06 17:00:00,
2013-03-06 11:05:00,53.2,20.7,30.37,North,0,0.0,0.0,29,0.00,,,0.00,WUHU216HW,2013-03-06 17:05:00,
2013-03-06 11:10:00,53.2,20.7,30.37,North,0,0.0,0.0,29,0.00,,,0.00,WUHU216HW,2013-03-06 17:10:00,
2013-03-06 11:15:00,54.6,21.9,30.36,North,0,0.0,0.0,28,0.00,,,0.00,WUHU216HW,2013-03-06 17:15:00,
2013-03-06 11:20:00,55.2,22.4,30.37,North,0,0.0,0.0,28,0.00,,,0.00,WUHU216HW,2013-03-06 17:20:00,
2013-03-06 11:25:00,55.2,23.3,30.37,North,0,0.0,0.0,29,0.00,,,0.00,WUHU216HW,2013-03-06 17:25:00,
2013-03-06 11:30:00,55.2,22.4,30.37,North,0,0.0,0.0,28,0.00,,,0.00,WUHU216HW,2013-03-06 17:30:00,
2013-03-06 11:35:00,56.1,22.2,30.36,North,0,0.0,0.0,27,0.00,,,0.00,WUHU216HW,2013-03-06 17:35:00,
2013-03-06 11:40:00,57.3,22.4,30.36,North,0,0.0,0.0,26,0.00,,,0.00,WUHU216HW,2013-03-06 17:40:00,
2013-03-06 11:45:00,59.0,22.8,30.35,North,0,0.0,0.0,25,0.00,,,0.00,WUHU216HW,2013-03-06 17:45:00,
2013-03-06 11:50:00,59.0,22.8,30.34,North,0,0.0,0.0,25,0.00,,,0.00,WUHU216HW,2013-03-06 17:50:00,
2013-03-06 11:55:00,59.7,22.4,30.34,North,0,0.0,0.0,24,0.00,,,0.00,WUHU216HW,2013-03-06 17:55:00,
2013-03-06 12:00:00,59.9,20.6,30.34,North,0,0.0,0.0,22,0.00,,,0.00,WUHU216HW,2013-03-06 18:00:00,
2013-03-06 12:06:00,60.4,23.0,30.34,North,0,0.0,0.0,24,0.00,,,0.00,WUHU216HW,2013-03-06 18:06:00,
2013-03-06 12:11:00,60.4,23.0,30.34,North,0,0.0,0.0,24,0.00,,,0.00,WUHU216HW,2013-03-06 18:11:00,
2013-03-06 12:16:00,62.2,20.7,30.33,North,0,0.0,0.0,20,0.00,,,0.00,WUHU216HW,2013-03-06 18:16:00,
2013-03-06 12:21:00,61.7,23.1,30.32,North,0,0.0,0.0,23,0.00,,,0.00,WUHU216HW,2013-03-06 18:21:00,
2013-03-06 12:26:00,62.6,21.9,30.32,North,0,0.0,0.0,21,0.00,,,0.00,WUHU216HW,2013-03-06 18:26:00,
2013-03-06 12:31:00,62.2,22.6,30.31,North,0,0.0,0.0,22,0.00,,,0.00,WUHU216HW,2013-03-06 18:31:00,
2013-03-06 12:36:00,60.6,20.3,30.31,North,0,0.0,0.0,21,0.00,,,0.00,WUHU216HW,2013-03-06 18:36:00,
2013-03-06 12:41:00,60.4,22.1,30.31,North,0,0.0,0.0,23,0.00,,,0.00,WUHU216HW,2013-03-06 18:41:00,
2013-03-06 12:46:00,60.9,22.5,30.31,North,0,0.0,0.0,23,0.00,,,0.00,WUHU216HW,2013-03-06 18:46:00,
2013-03-06 12:51:00,61.3,20.9,30.31,North,0,0.0,0.0,21,0.00,,,0.00,WUHU216HW,2013-03-06 18:51:00,
2013-03-06 12:56:00,61.3,20.9,30.30,North,0,0.0,0.0,21,0.00,,,0.00,WUHU216HW,2013-03-06 18:56:00,
2013-03-06 13:01:00,60.4,20.2,30.30,North,0,0.0,0.0,21,0.00,,,0.00,WUHU216HW,2013-03-06 19:01:00,
2013-03-06 13:06:00,59.5,19.4,30.29,North,0,0.0,0.0,21,0.00,,,0.00,WUHU216HW,2013-03-06 19:06:00,
2013-03-06 13:11:00,59.7,20.5,30.29,North,0,0.0,0.0,22,0.00,,,0.00,WUHU216HW,2013-03-06 19:11:00,
2013-03-06 13:16:00,59.7,20.5,30.28,North,0,0.0,0.0,22,0.00,,,0.00,WUHU216HW,2013-03-06 19:16:00,
2013-03-06 13:21:00,59.9,20.6,30.28,North,0,0.0,0.0,22,0.00,,,0.00,WUHU216HW,2013-03-06 19:21:00,
2013-03-06 13:26:00,61.3,20.9,30.27,North,0,0.0,0.0,21,0.00,,,0.00,WUHU216HW,2013-03-06 19:26:00,
2013-03-06 13:31:00,62.4,20.8,30.26,North,0,0.0,0.0,20,0.00,,,0.00,WUHU216HW,2013-03-06 19:31:00,
2013-03-06 13:36:00,63.8,22.0,30.26,North,0,0.0,0.0,20,0.00,,,0.00,WUHU216HW,2013-03-06 19:36:00,
2013-03-06 13:41:00,64.5,21.0,30.25,North,0,0.0,0.0,19,0.00,,,0.00,WUHU216HW,2013-03-06 19:41:00,
2013-03-06 13:46:00,65.1,21.4,30.25,North,0,0.0,0.0,19,0.00,,,0.00,WUHU216HW,2013-03-06 19:46:00,
2013-03-06 13:51:00,66.0,22.1,30.25,North,0,0.0,0.0,19,0.00,,,0.00,WUHU216HW,2013-03-06 19:51:00,
2013-03-06 13:56:00,66.7,22.7,30.25,North,0,0.0,0.0,19,0.00,,,0.00,WUHU216HW,2013-03-06 19:56:00,
2013-03-06 14:01:00,66.0,19.0,30.25,North,0,0.0,0.0,17,0.00,,,0.00,WUHU216HW,2013-03-06 20:01:00,
2013-03-06 14:06:00,65.3,21.5,30.24,North,0,0.0,0.0,19,0.00,,,0.00,WUHU216HW,2013-03-06 20:06:00,
2013-03-06 14:11:00,65.4,21.7,30.23,North,0,0.0,0.0,19,0.00,,,0.00,WUHU216HW,2013-03-06 20:11:00,
2013-03-06 14:16:00,65.3,21.5,30.23,North,0,0.0,0.0,19,0.00,,,0.00,WUHU216HW,2013-03-06 20:16:00,
2013-03-06 14:21:00,65.4,21.7,30.23,North,0,0.0,0.0,19,0.00,,,0.00,WUHU216HW,2013-03-06 20:21:00,
2013-03-06 14:26:00,65.1,19.8,30.22,North,0,0.0,0.0,18,0.00,,,0.00,WUHU216HW,2013-03-06 20:26:00,
2013-03-06 14:31:00,65.1,21.4,30.21,North,0,0.0,0.0,19,0.00,,,0.00,WUHU216HW,2013-03-06 20:31:00,
2013-03-06 14:36:00,66.0,22.1,30.21,North,0,0.0,0.0,19,0.00,,,0.00,WUHU216HW,2013-03-06 20:36:00,
2013-03-06 14:41:00,66.7,21.2,30.21,North,0,0.0,0.0,17,0.00,,,0.00,WUHU216HW,2013-03-06 20:41:00,
2013-03-06 14:46:00,66.0,20.5,30.21,North,0,0.0,0.0,18,0.00,,,0.00,WUHU216HW,2013-03-06 20:46:00,
2013-03-06 14:51:00,66.5,21.0,30.21,North,0,0.0,0.0,18,0.00,,,0.00,WUHU216HW,2013-03-06 20:51:00,
2013-03-06 14:56:00,66.9,21.3,30.20,North,0,0.0,0.0,17,0.00,,,0.00,WUHU216HW,2013-03-06 20:56:00,
2013-03-06 15:01:00,66.9,19.7,30.20,North,0,0.0,0.0,17,0.00,,,0.00,WUHU216HW,2013-03-06 21:01:00,
2013-03-06 15:06:00,66.3,19.3,30.19,North,0,0.0,0.0,17,0.00,,,0.00,WUHU216HW,2013-03-06 21:06:00,
2013-03-06 15:11:00,65.8,18.8,30.18,North,0,0.0,0.0,17,0.00,,,0.00,WUHU216HW,2013-03-06 21:11:00,
2013-03-06 15:16:00,65.4,18.5,30.18,North,0,0.0,0.0,17,0.00,,,0.00,WUHU216HW,2013-03-06 21:16:00,
2013-03-06 15:21:00,65.4,18.5,30.19,North,0,0.0,0.0,17,0.00,,,0.00,WUHU216HW,2013-03-06 21:21:00,
2013-03-06 15:27:00,65.3,20.0,30.19,North,0,0.0,0.0,18,0.00,,,0.00,WUHU216HW,2013-03-06 21:27:00,
2013-03-06 15:32:00,65.1,18.2,30.19,North,0,0.0,0.0,17,0.00,,,0.00,WUHU216HW,2013-03-06 21:32:00,
2013-03-06 15:37:00,65.1,18.2,30.19,North,0,0.0,0.0,17,0.00,,,0.00,WUHU216HW,2013-03-06 21:37:00,
2013-03-06 15:51:00,64.4,19.2,30.19,North,0,0.0,0.0,18,0.00,,,0.00,WUHU216HW,2013-03-06 21:51:00,
2013-03-06 15:56:00,64.0,19.0,30.18,North,0,0.0,0.0,18,0.00,,,0.00,WUHU216HW,2013-03-06 21:56:00,
2013-03-06 16:01:00,64.0,19.0,30.18,North,0,0.0,0.0,18,0.00,,,0.00,WUHU216HW,2013-03-06 22:01:00,
2013-03-06 16:06:00,63.5,18.5,30.18,North,0,0.0,0.0,18,0.00,,,0.00,WUHU216HW,2013-03-06 22:06:00,
2013-03-06 16:11:00,63.1,18.3,30.18,North,0,0.0,0.0,18,0.00,,,0.00,WUHU216HW,2013-03-06 22:11:00,
2013-03-06 16:16:00,62.9,19.7,30.18,North,0,0.0,0.0,19,0.00,,,0.00,WUHU216HW,2013-03-06 22:16:00,
2013-03-06 16:21:00,62.9,19.7,30.18,North,0,0.0,0.0,19,0.00,,,0.00,WUHU216HW,2013-03-06 22:21:00,
2013-03-06 16:26:00,63.1,19.8,30.19,North,0,0.0,0.0,19,0.00,,,0.00,WUHU216HW,2013-03-06 22:26:00,
2013-03-06 16:31:00,63.1,19.8,30.18,North,0,0.0,0.0,19,0.00,,,0.00,WUHU216HW,2013-03-06 22:31:00,
2013-03-06 16:36:00,63.3,20.0,30.18,North,0,0.0,0.0,19,0.00,,,0.00,WUHU216HW,2013-03-06 22:36:00,
2013-03-06 16:41:00,63.5,20.1,30.18,North,0,0.0,0.0,19,0.00,,,0.00,WUHU216HW,2013-03-06 22:41:00,
2013-03-06 16:46:00,64.0,20.5,30.18,North,0,0.0,0.0,19,0.00,,,0.00,WUHU216HW,2013-03-06 22:46:00,
2013-03-06 16:51:00,64.2,19.1,30.18,North,0,0.0,0.0,19,0.00,,,0.00,WUHU216HW,2013-03-06 22:51:00,
2013-03-06 16:56:00,63.6,20.3,30.18,North,0,0.0,0.0,19,0.00,,,0.00,WUHU216HW,2013-03-06 22:56:00,
2013-03-06 17:01:00,63.6,20.3,30.17,North,0,0.0,0.0,19,0.00,,,0.00,WUHU216HW,2013-03-06 23:01:00,
2013-03-06 17:06:00,63.3,20.0,30.18,North,0,0.0,0.0,19,0.00,,,0.00,WUHU216HW,2013-03-06 23:06:00,
2013-03-06 17:11:00,62.4,19.3,30.18,North,0,0.0,0.0,19,0.00,,,0.00,WUHU216HW,2013-03-06 23:11:00,
2013-03-06 17:16:00,62.4,19.3,30.17,North,0,0.0,0.0,20,0.00,,,0.00,WUHU216HW,2013-03-06 23:16:00,
2013-03-06 17:21:00,62.2,20.7,30.18,North,0,0.0,0.0,20,0.00,,,0.00,WUHU216HW,2013-03-06 23:21:00,
2013-03-06 17:26:00,61.7,18.7,30.17,North,0,0.0,0.0,19,0.00,,,0.00,WUHU216HW,2013-03-06 23:26:00,
2013-03-06 17:31:00,61.1,19.8,30.18,North,0,0.0,0.0,20,0.00,,,0.00,WUHU216HW,2013-03-06 23:31:00,
2013-03-06 17:36:00,60.6,19.4,30.18,North,0,0.0,0.0,20,0.00,,,0.00,WUHU216HW,2013-03-06 23:36:00,
2013-03-06 17:41:00,60.4,19.2,30.18,North,0,0.0,0.0,20,0.00,,,0.00,WUHU216HW,2013-03-06 23:41:00,
2013-03-06 17:46:00,60.0,18.9,30.17,North,0,0.0,0.0,20,0.00,,,0.00,WUHU216HW,2013-03-06 23:46:00,
2013-03-06 17:51:00,60.0,18.9,30.17,North,0,0.0,0.0,20,0.00,,,0.00,WUHU216HW,2013-03-06 23:51:00,
2013-03-06 17:56:00,59.7,19.5,30.17,North,0,0.0,0.0,21,0.00,,,0.00,WUHU216HW,2013-03-06 23:56:00,
2013-03-06 18:01:00,59.5,19.4,30.18,North,0,0.0,0.0,21,0.00,,,0.00,WUHU216HW,2013-03-07 00:01:00,
2013-03-06 18:06:00,59.0,18.9,30.18,North,0,0.0,0.0,21,0.00,,,0.00,WUHU216HW,2013-03-07 00:06:00,
2013-03-06 18:11:00,58.6,18.6,30.18,North,0,0.0,0.0,22,0.00,,,0.00,WUHU216HW,2013-03-07 00:11:00,
2013-03-06 18:16:00,58.1,19.1,30.18,North,0,0.0,0.0,22,0.00,,,0.00,WUHU216HW,2013-03-07 00:16:00,
2013-03-06 18:21:00,57.3,20.4,30.18,North,0,0.0,0.0,24,0.00,,,0.00,WUHU216HW,2013-03-07 00:21:00,
2013-03-06 18:26:00,56.8,20.0,30.18,North,0,0.0,0.0,24,0.00,,,0.00,WUHU216HW,2013-03-07 00:26:00,
2013-03-06 18:31:00,56.4,20.6,30.18,North,0,0.0,0.0,25,0.00,,,0.00,WUHU216HW,2013-03-07 00:31:00,
2013-03-06 18:36:00,55.5,20.8,30.18,North,0,0.0,0.0,26,0.00,,,0.00,WUHU216HW,2013-03-07 00:36:00,
2013-03-06 18:41:00,55.0,20.3,30.18,North,0,0.0,0.0,26,0.00,,,0.00,WUHU216HW,2013-03-07 00:41:00,
2013-03-06 18:46:00,54.3,19.7,30.18,North,0,0.0,0.0,26,0.00,,,0.00,WUHU216HW,2013-03-07 00:46:00,
2013-03-06 18:51:00,53.6,20.1,30.18,North,0,0.0,0.0,27,0.00,,,0.00,WUHU216HW,2013-03-07 00:51:00,
2013-03-06 18:56:00,53.2,19.8,30.18,North,0,0.0,0.0,27,0.00,,,0.00,WUHU216HW,2013-03-07 00:56:00,
2013-03-06 19:01:00,52.7,19.3,30.18,North,0,0.0,0.0,27,0.00,,,0.00,WUHU216HW,2013-03-07 01:01:00,
2013-03-06 19:06:00,52.3,19.0,30.18,North,0,0.0,0.0,27,0.00,,,0.00,WUHU216HW,2013-03-07 01:06:00,
2013-03-06 19:11:00,52.1,18.8,30.18,North,0,0.0,0.0,27,0.00,,,0.00,WUHU216HW,2013-03-07 01:11:00,
2013-03-06 19:16:00,52.1,18.8,30.18,North,0,0.0,0.0,27,0.00,,,0.00,WUHU216HW,2013-03-07 01:16:00,
2013-03-06 19:21:00,52.3,19.0,30.17,North,0,0.0,0.0,27,0.00,,,0.00,WUHU216HW,2013-03-07 01:21:00,
2013-03-06 19:26:00,52.3,19.0,30.16,North,0,0.0,0.0,27,0.00,,,0.00,WUHU216HW,2013-03-07 01:26:00,
2013-03-06 19:31:00,52.3,19.0,30.16,North,0,0.0,0.0,27,0.00,,,0.00,WUHU216HW,2013-03-07 01:31:00,
2013-03-06 19:36:00,52.5,19.2,30.16,North,0,0.0,0.0,27,0.00,,,0.00,WUHU216HW,2013-03-07 01:36:00,
2013-03-06 19:41:00,52.7,19.3,30.16,North,0,0.0,0.0,27,0.00,,,0.00,WUHU216HW,2013-03-07 01:41:00,
2013-03-06 19:46:00,52.8,19.5,30.16,North,0,0.0,0.0,27,0.00,,,0.00,WUHU216HW,2013-03-07 01:46:00,
2013-03-06 19:51:00,53.0,19.6,30.16,North,0,0.0,0.0,27,0.00,,,0.00,WUHU216HW,2013-03-07 01:51:00,
2013-03-06 19:56:00,53.2,19.8,30.16,North,0,0.0,0.0,27,0.00,,,0.00,WUHU216HW,2013-03-07 01:56:00,
2013-03-06 20:01:00,53.2,19.8,30.17,North,0,0.0,0.0,27,0.00,,,0.00,WUHU216HW,2013-03-07 02:01:00,
2013-03-06 20:06:00,52.7,19.3,30.18,North,0,0.0,0.0,27,0.00,,,0.00,WUHU216HW,2013-03-07 02:06:00,
2013-03-06 20:12:00,52.3,19.9,30.17,North,0,0.0,0.0,28,0.00,,,0.00,WUHU216HW,2013-03-07 02:12:00,
2013-03-06 20:17:00,51.6,19.3,30.17,North,0,0.0,0.0,28,0.00,,,0.00,WUHU216HW,2013-03-07 02:17:00,
2013-03-06 20:22:00,50.7,19.4,30.17,North,0,0.0,0.0,29,0.00,,,0.00,WUHU216HW,2013-03-07 02:22:00,
2013-03-06 20:27:00,50.1,19.9,30.17,North,0,0.0,0.0,30,0.00,,,0.00,WUHU216HW,2013-03-07 02:27:00,
2013-03-06 20:32:00,49.6,20.1,30.17,North,0,0.0,0.0,31,0.00,,,0.00,WUHU216HW,2013-03-07 02:32:00,
2013-03-06 20:37:00,49.1,19.7,30.17,North,0,0.0,0.0,31,0.00,,,0.00,WUHU216HW,2013-03-07 02:37:00,
2013-03-06 20:42:00,48.7,19.4,30.18,North,0,0.0,0.0,31,0.00,,,0.00,WUHU216HW,2013-03-07 02:42:00,
2013-03-06 20:47:00,48.7,19.4,30.18,North,0,0.0,0.0,32,0.00,,,0.00,WUHU216HW,2013-03-07 02:47:00,
2013-03-06 20:52:00,48.3,20.4,30.18,North,0,0.0,0.0,33,0.00,,,0.00,WUHU216HW,2013-03-07 02:52:00,
2013-03-06 20:57:00,48.0,19.4,30.19,North,0,0.0,0.0,33,0.00,,,0.00,WUHU216HW,2013-03-07 02:57:00,
2013-03-06 21:02:00,48.0,19.4,30.19,North,0,0.0,0.0,33,0.00,,,0.00,WUHU216HW,2013-03-07 03:02:00,
2013-03-06 21:07:00,47.8,19.9,30.19,North,0,0.0,0.0,34,0.00,,,0.00,WUHU216HW,2013-03-07 03:07:00,
2013-03-06 21:12:00,47.4,20.3,30.19,North,0,0.0,0.0,33,0.00,,,0.00,WUHU216HW,2013-03-07 03:12:00,
2013-03-06 21:17:00,47.1,20.0,30.19,North,0,0.0,0.0,34,0.00,,,0.00,WUHU216HW,2013-03-07 03:17:00,
2013-03-06 21:22:00,46.9,19.8,30.19,North,0,0.0,0.0,34,0.00,,,0.00,WUHU216HW,2013-03-07 03:22:00,
2013-03-06 21:27:00,46.0,20.3,30.19,North,0,0.0,0.0,36,0.00,,,0.00,WUHU216HW,2013-03-07 03:27:00,
2013-03-06 21:32:00,45.6,20.7,30.19,North,0,0.0,0.0,37,0.00,,,0.00,WUHU216HW,2013-03-07 03:32:00,
2013-03-06 21:37:00,45.3,20.3,30.19,North,0,0.0,0.0,38,0.00,,,0.00,WUHU216HW,2013-03-07 03:37:00,
2013-03-06 21:42:00,44.9,20.0,30.19,North,0,0.0,0.0,37,0.00,,,0.00,WUHU216HW,2013-03-07 03:42:00,
2013-03-06 21:47:00,44.9,20.0,30.18,North,0,0.0,0.0,37,0.00,,,0.00,WUHU216HW,2013-03-07 03:47:00,
2013-03-06 21:52:00,44.9,20.0,30.19,North,0,0.0,0.0,37,0.00,,,0.00,WUHU216HW,2013-03-07 03:52:00,
2013-03-06 21:57:00,44.9,20.0,30.19,North,0,0.0,0.0,37,0.00,,,0.00,WUHU216HW,2013-03-07 03:57:00,
2013-03-06 22:02:00,44.9,20.0,30.19,North,0,0.0,0.0,37,0.00,,,0.00,WUHU216HW,2013-03-07 04:02:00,
2013-03-06 22:07:00,44.9,20.0,30.19,North,0,0.0,0.0,37,0.00,,,0.00,WUHU216HW,2013-03-07 04:07:00,
2013-03-06 22:12:00,44.9,20.0,30.19,North,0,0.0,0.0,37,0.00,,,0.00,WUHU216HW,2013-03-07 04:12:00,
2013-03-06 22:17:00,44.7,20.5,30.19,North,0,0.0,0.0,38,0.00,,,0.00,WUHU216HW,2013-03-07 04:17:00,
2013-03-06 22:22:00,44.2,20.0,30.19,North,0,0.0,0.0,38,0.00,,,0.00,WUHU216HW,2013-03-07 04:22:00,
2013-03-06 22:27:00,43.7,20.2,30.19,North,0,0.0,0.0,39,0.00,,,0.00,WUHU216HW,2013-03-07 04:27:00,
2013-03-06 22:32:00,43.5,19.4,30.19,North,0,0.0,0.0,39,0.00,,,0.00,WUHU216HW,2013-03-07 04:32:00,
2013-03-06 22:37:00,42.8,19.4,30.18,North,0,0.0,0.0,39,0.00,,,0.00,WUHU216HW,2013-03-07 04:37:00,
2013-03-06 22:42:00,42.6,19.2,30.18,North,0,0.0,0.0,40,0.00,,,0.00,WUHU216HW,2013-03-07 04:42:00,
2013-03-06 22:47:00,42.4,19.7,30.18,North,0,0.0,0.0,40,0.00,,,0.00,WUHU216HW,2013-03-07 04:47:00,
2013-03-06 22:52:00,42.4,19.7,30.19,North,0,0.0,0.0,41,0.00,,,0.00,WUHU216HW,2013-03-07 04:52:00,
2013-03-06 22:57:00,42.2,20.1,30.19,North,0,0.0,0.0,41,0.00,,,0.00,WUHU216HW,2013-03-07 04:57:00,
2013-03-06 23:02:00,42.0,20.0,30.19,North,0,0.0,0.0,41,0.00,,,0.00,WUHU216HW,2013-03-07 05:02:00,
2013-03-06 23:07:00,41.7,19.6,30.18,North,0,0.0,0.0,41,0.00,,,0.00,WUHU216HW,2013-03-07 05:07:00,
2013-03-06 23:12:00,41.9,19.8,30.18,North,0,0.0,0.0,41,0.00,,,0.00,WUHU216HW,2013-03-07 05:12:00,
2013-03-06 23:17:00,41.7,19.6,30.17,North,0,0.0,0.0,41,0.00,,,0.00,WUHU216HW,2013-03-07 05:17:00,
2013-03-06 23:22:00,42.0,20.0,30.17,North,0,0.0,0.0,41,0.00,,,0.00,WUHU216HW,2013-03-07 05:22:00,
2013-03-06 23:27:00,42.0,20.0,30.18,North,0,0.0,0.0,41,0.00,,,0.00,WUHU216HW,2013-03-07 05:27:00,
2013-03-06 23:32:00,42.0,20.0,30.17,North,0,0.0,0.0,41,0.00,,,0.00,WUHU216HW,2013-03-07 05:32:00,
2013-03-06 23:37:00,41.9,19.8,30.17,North,0,0.0,0.0,41,0.00,,,0.00,WUHU216HW,2013-03-07 05:37:00,
2013-03-06 23:42:00,41.9,19.8,30.17,North,0,0.0,0.0,41,0.00,,,0.00,WUHU216HW,2013-03-07 05:42:00,
2013-03-06 23:47:00,41.7,19.6,30.17,North,0,0.0,0.0,41,0.00,,,0.00,WUHU216HW,2013-03-07 05:47:00,
2013-03-06 23:52:00,41.7,19.6,30.16,North,0,0.0,0.0,41,0.00,,,0.00,WUHU216HW,2013-03-07 05:52:00,
2013-03-06 23:57:00,41.7,19.6,30.17,North,0,0.0,0.0,42,0.00,,,0.00,WUHU216HW,2013-03-07 05:57:00,